createdAt,value
2023-02-11T00:00:33.795Z,100.00
2023-02-11T00:03:01.047Z,100.00
2023-02-11T00:05:29.569Z,100.00
2023-02-11T00:07:57.172Z,100.00
2023-02-11T00:10:24.355Z,100.00
2023-02-11T00:12:51.544Z,100.00
2023-02-11T00:15:18.708Z,100.00
2023-02-11T00:17:45.856Z,99.43
2023-02-11T00:20:13.048Z,99.19
2023-02-11T00:22:41.641Z,98.92
2023-02-11T00:25:08.815Z,98.37
2023-02-11T00:27:36.655Z,98.00
2023-02-11T00:30:04.468Z,98.14
2023-02-11T00:32:31.657Z,97.89
2023-02-11T00:34:58.842Z,97.95
2023-02-11T00:37:26.075Z,98.78
2023-02-11T00:39:54.824Z,99.37
2023-02-11T00:42:22.007Z,100.00
2023-02-11T00:44:49.191Z,100.00
2023-02-11T00:47:17.425Z,100.00
2023-02-11T00:49:44.634Z,100.00
2023-02-11T00:52:11.788Z,100.00
2023-02-11T00:54:38.962Z,100.00
2023-02-11T00:57:08.618Z,100.00
2023-02-11T00:59:35.966Z,100.00
2023-02-11T01:02:03.388Z,100.00
2023-02-11T01:04:30.585Z,100.00
2023-02-11T01:06:57.797Z,100.00
2023-02-11T01:09:26.052Z,100.00
2023-02-11T01:11:53.254Z,100.00
2023-02-11T01:14:21.794Z,100.00
2023-02-11T01:16:51.616Z,100.00
2023-02-11T01:19:20.621Z,100.00
2023-02-11T01:21:47.842Z,100.00
2023-02-11T01:24:15.047Z,100.00
2023-02-11T01:26:44.707Z,100.00
2023-02-11T01:29:11.849Z,100.00
2023-02-11T01:31:40.538Z,100.00
2023-02-11T01:34:07.761Z,100.00
2023-02-11T01:36:37.333Z,100.00
2023-02-11T01:39:04.557Z,100.00
2023-02-11T01:41:31.952Z,99.98
2023-02-11T01:43:59.325Z,99.73
2023-02-11T01:46:31.722Z,99.43
2023-02-11T01:49:04.627Z,99.96
2023-02-11T01:51:37.333Z,99.85
2023-02-11T01:54:07.078Z,100.00
2023-02-11T01:56:37.130Z,100.00
2023-02-11T01:59:11.165Z,100.00
2023-02-11T02:01:41.514Z,100.00
2023-02-11T02:04:11.463Z,100.00
2023-02-11T02:06:46.040Z,100.00
2023-02-11T02:09:21.326Z,100.00
2023-02-11T02:11:48.867Z,100.00
2023-02-11T02:14:16.097Z,100.00
2023-02-11T02:16:44.564Z,100.00
2023-02-11T02:19:47.590Z,100.00
2023-02-11T02:22:42.969Z,100.00
2023-02-11T02:25:27.612Z,100.00
2023-02-11T02:28:06.908Z,100.00
2023-02-11T02:31:00.984Z,100.00
2023-02-11T02:33:37.459Z,100.00
2023-02-11T02:36:14.297Z,100.00
2023-02-11T02:38:48.585Z,100.00
2023-02-11T02:41:19.137Z,100.00
2023-02-11T02:43:48.994Z,100.00
2023-02-11T02:46:18.520Z,100.00
2023-02-11T02:48:48.373Z,100.00
2023-02-11T02:51:36.138Z,100.00
2023-02-11T02:54:23.650Z,100.00
2023-02-11T02:56:56.062Z,100.00
2023-02-11T02:59:41.123Z,100.00
2023-02-11T03:02:17.751Z,100.00
2023-02-11T03:04:52.465Z,100.00
2023-02-11T03:07:25.430Z,100.00
2023-02-11T03:09:59.233Z,100.00
2023-02-11T03:12:29.911Z,100.00
2023-02-11T03:14:59.247Z,100.00
2023-02-11T03:17:28.458Z,100.00
2023-02-11T03:19:58.391Z,100.00
2023-02-11T03:22:30.639Z,100.00
2023-02-11T03:24:57.921Z,100.00
2023-02-11T03:27:28.808Z,99.85
2023-02-11T03:30:05.295Z,99.90
2023-02-11T03:32:36.618Z,99.74
2023-02-11T03:35:11.588Z,99.81
2023-02-11T03:37:43.185Z,99.88
2023-02-11T03:40:13.531Z,99.15
2023-02-11T03:42:45.818Z,99.24
2023-02-11T03:45:17.840Z,99.53
2023-02-11T03:47:50.178Z,99.78
2023-02-11T03:50:20.862Z,99.72
2023-02-11T03:52:50.145Z,99.82
2023-02-11T03:55:20.602Z,100.00
2023-02-11T03:57:47.938Z,99.63
2023-02-11T04:00:15.765Z,99.50
2023-02-11T04:02:43.372Z,99.50
2023-02-11T04:05:13.673Z,99.52
2023-02-11T04:07:42.167Z,99.44
2023-02-11T04:10:11.278Z,99.32
2023-02-11T04:12:38.458Z,99.21
2023-02-11T04:15:06.496Z,99.38
2023-02-11T04:17:33.738Z,99.44
2023-02-11T04:20:00.983Z,99.26
2023-02-11T04:22:28.149Z,99.07
2023-02-11T04:24:56.870Z,99.16
2023-02-11T04:27:24.012Z,99.67
2023-02-11T04:29:51.310Z,99.46
2023-02-11T04:32:18.514Z,99.46
2023-02-11T04:34:45.669Z,99.19
2023-02-11T04:37:13.058Z,99.12
2023-02-11T04:39:40.310Z,99.26
2023-02-11T04:42:08.889Z,99.44
2023-02-11T04:44:36.066Z,99.22
2023-02-11T04:47:03.504Z,99.23
2023-02-11T04:49:30.947Z,99.06
2023-02-11T04:51:58.103Z,98.80
2023-02-11T04:54:25.298Z,98.56
2023-02-11T04:56:52.404Z,98.28
2023-02-11T04:59:20.944Z,98.24
2023-02-11T05:01:48.112Z,97.92
2023-02-11T05:04:15.346Z,97.98
2023-02-11T05:06:42.537Z,98.18
2023-02-11T05:09:11.624Z,98.74
2023-02-11T05:11:38.911Z,99.29
2023-02-11T05:14:06.565Z,99.06
2023-02-11T05:16:35.190Z,99.24
2023-02-11T05:19:02.416Z,99.51
2023-02-11T05:21:29.828Z,99.48
2023-02-11T05:23:57.061Z,99.47
2023-02-11T05:26:24.604Z,99.87
2023-02-11T05:28:51.872Z,99.71
2023-02-11T05:31:19.118Z,99.81
2023-02-11T05:33:47.733Z,99.46
2023-02-11T05:36:14.936Z,99.36
2023-02-11T05:38:42.882Z,99.15
2023-02-11T05:41:10.968Z,98.88
2023-02-11T05:43:38.456Z,98.86
2023-02-11T05:46:05.966Z,99.17
2023-02-11T05:48:33.259Z,98.64
2023-02-11T05:51:01.779Z,98.44
2023-02-11T05:53:28.997Z,98.40
2023-02-11T05:55:56.133Z,98.51
2023-02-11T05:58:23.331Z,98.82
2023-02-11T06:00:50.442Z,98.71
2023-02-11T06:03:17.620Z,98.33
2023-02-11T06:05:44.963Z,98.57
2023-02-11T06:08:13.453Z,98.31
2023-02-11T06:10:40.642Z,98.26
2023-02-11T06:13:07.918Z,98.06
2023-02-11T06:15:35.059Z,97.74
2023-02-11T06:18:02.289Z,97.96
2023-02-11T06:20:29.469Z,98.01
2023-02-11T06:22:56.681Z,98.14
2023-02-11T06:25:25.220Z,98.46
2023-02-11T06:27:52.378Z,98.46
2023-02-11T06:30:19.636Z,98.53
2023-02-11T06:32:47.058Z,98.75
2023-02-11T06:35:14.618Z,99.27
2023-02-11T06:37:42.185Z,99.35
2023-02-11T06:40:10.381Z,99.31
2023-02-11T06:42:39.471Z,99.55
2023-02-11T06:45:07.950Z,99.34
2023-02-11T06:47:35.324Z,99.72
2023-02-11T06:50:02.814Z,99.44
2023-02-11T06:52:29.979Z,99.34
2023-02-11T06:54:57.175Z,99.50
2023-02-11T06:57:24.317Z,99.95
2023-02-11T06:59:52.950Z,100.00
2023-02-11T07:02:21.157Z,99.65
2023-02-11T07:04:48.733Z,99.93
2023-02-11T07:07:15.938Z,100.00
2023-02-11T07:09:43.354Z,99.83
2023-02-11T07:12:10.748Z,99.72
2023-02-11T07:14:37.967Z,99.57
2023-02-11T07:17:06.492Z,99.53
2023-02-11T07:19:33.651Z,99.57
2023-02-11T07:22:00.831Z,99.03
2023-02-11T07:24:27.998Z,99.19
2023-02-11T07:26:55.140Z,99.39
2023-02-11T07:29:22.334Z,99.23
2023-02-11T07:31:49.629Z,98.97
2023-02-11T07:34:18.211Z,98.86
2023-02-11T07:36:45.407Z,98.50
2023-02-11T07:39:12.578Z,98.42
2023-02-11T07:41:39.740Z,98.38
2023-02-11T07:44:07.432Z,97.67
2023-02-11T07:46:34.698Z,97.04
2023-02-11T07:49:01.946Z,96.74
2023-02-11T07:51:31.219Z,96.07
2023-02-11T07:54:00.007Z,95.63
2023-02-11T07:56:28.373Z,95.34
2023-02-11T07:58:56.350Z,95.34
2023-02-11T08:01:25.663Z,95.44
2023-02-11T08:03:53.196Z,95.52
2023-02-11T08:06:22.540Z,95.11
2023-02-11T08:08:51.717Z,94.60
2023-02-11T08:11:22.538Z,94.04
2023-02-11T08:13:50.011Z,94.25
2023-02-11T08:16:19.641Z,94.02
2023-02-11T08:18:47.520Z,93.29
2023-02-11T08:21:14.719Z,92.83
2023-02-11T08:23:44.001Z,92.58
2023-02-11T08:26:18.420Z,92.44
2023-02-11T08:28:47.246Z,92.82
2023-02-11T08:31:16.484Z,92.10
2023-02-11T08:33:43.864Z,91.67
2023-02-11T08:36:12.878Z,91.69
2023-02-11T08:38:40.497Z,90.24
2023-02-11T08:41:08.065Z,89.90
2023-02-11T08:43:37.490Z,89.88
2023-02-11T08:46:05.107Z,89.83
2023-02-11T08:48:32.382Z,89.42
2023-02-11T08:50:59.639Z,90.15
2023-02-11T08:53:26.941Z,90.25
2023-02-11T08:55:55.322Z,89.55
2023-02-11T08:58:22.845Z,88.91
2023-02-11T09:00:51.712Z,88.34
2023-02-11T09:03:18.987Z,87.76
2023-02-11T09:05:48.291Z,86.88
2023-02-11T09:08:16.172Z,85.85
2023-02-11T09:10:43.385Z,84.90
2023-02-11T09:13:10.629Z,85.12
2023-02-11T09:15:37.876Z,84.34
2023-02-11T09:18:06.442Z,84.47
2023-02-11T09:20:33.592Z,83.81
2023-02-11T09:23:00.744Z,83.14
2023-02-11T09:25:27.893Z,82.45
2023-02-11T09:27:55.066Z,82.98
2023-02-11T09:30:22.487Z,82.11
2023-02-11T09:32:49.634Z,81.61
2023-02-11T09:35:18.254Z,82.58
2023-02-11T09:37:45.407Z,81.56
2023-02-11T09:40:14.292Z,81.77
2023-02-11T09:42:46.958Z,82.67
2023-02-11T09:45:19.338Z,82.47
2023-02-11T09:47:50.808Z,82.84
2023-02-11T09:50:23.666Z,81.94
2023-02-11T09:52:56.654Z,81.72
2023-02-11T09:55:28.608Z,82.41
2023-02-11T09:57:56.713Z,81.78
2023-02-11T10:00:28.342Z,82.16
2023-02-11T10:03:08.633Z,81.82
2023-02-11T10:05:50.912Z,81.44
2023-02-11T10:08:27.983Z,81.31
2023-02-11T10:11:04.023Z,81.75
2023-02-11T10:13:47.743Z,81.58
2023-02-11T10:16:29.630Z,81.17
2023-02-11T10:19:13.169Z,80.80
2023-02-11T10:21:51.477Z,80.89
2023-02-11T10:24:19.138Z,79.92
2023-02-11T10:26:46.646Z,79.60
2023-02-11T10:29:27.533Z,79.92
2023-02-11T10:31:57.254Z,79.72
2023-02-11T10:34:25.416Z,79.27
2023-02-11T10:36:53.931Z,79.54
2023-02-11T10:39:23.169Z,80.00
2023-02-11T10:41:53.770Z,78.76
2023-02-11T10:44:26.337Z,78.65
2023-02-11T10:46:54.491Z,78.52
2023-02-11T10:49:35.179Z,77.08
2023-02-11T10:52:15.970Z,77.78
2023-02-11T10:54:55.897Z,76.93
2023-02-11T10:57:28.103Z,77.27
2023-02-11T10:59:59.403Z,77.30
2023-02-11T11:02:29.894Z,77.04
2023-02-11T11:04:58.704Z,76.91
2023-02-11T11:07:29.465Z,76.81
2023-02-11T11:10:00.002Z,77.16
2023-02-11T11:12:31.127Z,76.82
2023-02-11T11:15:01.020Z,76.86
2023-02-11T11:17:28.610Z,76.74
2023-02-11T11:20:14.409Z,76.27
2023-02-11T11:22:43.576Z,76.98
2023-02-11T11:25:22.268Z,78.14
2023-02-11T11:27:49.685Z,77.22
2023-02-11T11:30:17.430Z,76.16
2023-02-11T11:32:45.144Z,76.87
2023-02-11T11:35:24.080Z,78.28
2023-02-11T11:37:56.720Z,78.21
2023-02-11T11:40:25.845Z,77.24
2023-02-11T11:43:15.187Z,78.39
2023-02-11T11:45:54.055Z,78.61
2023-02-11T11:48:24.936Z,78.36
2023-02-11T11:50:54.742Z,77.70
2023-02-11T11:53:29.051Z,78.35
2023-02-11T11:56:02.870Z,77.96
2023-02-11T11:58:31.893Z,78.44
2023-02-11T12:01:10.291Z,79.09
2023-02-11T12:04:10.822Z,78.18
2023-02-11T12:06:44.904Z,78.62
2023-02-11T12:09:23.343Z,78.97
2023-02-11T12:12:20.161Z,78.19
2023-02-11T12:14:59.703Z,78.34
2023-02-11T12:17:49.020Z,79.58
2023-02-11T12:20:31.854Z,79.97
2023-02-11T12:23:12.837Z,79.93
2023-02-11T12:25:46.403Z,79.41
2023-02-11T12:28:27.235Z,80.51
2023-02-11T12:31:06.409Z,81.18
2023-02-11T12:34:12.138Z,81.33
2023-02-11T12:36:52.153Z,82.00
2023-02-11T12:39:32.468Z,81.62
2023-02-11T12:42:24.377Z,81.00
2023-02-11T12:45:07.558Z,81.02
2023-02-11T12:47:47.237Z,81.39
2023-02-11T12:50:22.319Z,81.79
2023-02-11T12:53:02.578Z,81.00
2023-02-11T12:55:35.854Z,81.15
2023-02-11T12:58:05.254Z,82.43
2023-02-11T13:00:43.284Z,82.92
2023-02-11T13:03:14.975Z,82.69
2023-02-11T13:05:46.779Z,82.22
2023-02-11T13:08:15.499Z,82.13
2023-02-11T13:10:47.257Z,81.85
2023-02-11T13:13:19.078Z,82.44
2023-02-11T13:15:50.883Z,82.49
2023-02-11T13:18:29.258Z,82.57
2023-02-11T13:21:08.855Z,82.45
2023-02-11T13:23:41.559Z,82.34
2023-02-11T13:26:16.324Z,82.90
2023-02-11T13:28:51.738Z,82.48
2023-02-11T13:31:19.280Z,82.63
2023-02-11T13:33:46.901Z,83.24
2023-02-11T13:36:23.114Z,84.12
2023-02-11T13:39:03.055Z,83.48
2023-02-11T13:41:33.244Z,83.09
2023-02-11T13:44:05.955Z,82.77
2023-02-11T13:46:55.307Z,83.02
2023-02-11T13:49:25.632Z,83.35
2023-02-11T13:51:54.338Z,83.00
2023-02-11T13:54:26.394Z,83.69
2023-02-11T13:57:35.012Z,83.45
2023-02-11T14:00:30.665Z,83.66
2023-02-11T14:03:28.780Z,83.22
2023-02-11T14:06:12.823Z,83.48
2023-02-11T14:08:59.397Z,84.19
2023-02-11T14:11:48.695Z,84.59
2023-02-11T14:14:26.090Z,84.62
2023-02-11T14:17:18.653Z,84.64
2023-02-11T14:19:47.712Z,84.44
2023-02-11T14:22:18.093Z,84.27
2023-02-11T14:24:49.269Z,84.52
2023-02-11T14:27:23.737Z,84.62
2023-02-11T14:30:07.933Z,84.50
2023-02-11T14:32:51.355Z,84.43
2023-02-11T14:35:27.557Z,84.46
2023-02-11T14:38:02.255Z,84.49
2023-02-11T14:40:33.897Z,84.38
2023-02-11T14:43:08.082Z,84.80
2023-02-11T14:45:36.764Z,85.25
2023-02-11T14:48:14.162Z,85.29
2023-02-11T14:50:45.387Z,84.43
2023-02-11T14:53:16.265Z,84.24
2023-02-11T14:55:47.708Z,84.19
2023-02-11T14:58:17.613Z,84.40
2023-02-11T15:00:50.508Z,84.44
2023-02-11T15:03:34.176Z,84.35
2023-02-11T15:06:05.052Z,84.73
2023-02-11T15:08:35.818Z,84.70
2023-02-11T15:11:08.024Z,84.79
2023-02-11T15:13:35.351Z,84.86
2023-02-11T15:16:07.015Z,85.53
2023-02-11T15:18:40.292Z,85.61
2023-02-11T15:21:08.245Z,85.84
2023-02-11T15:23:35.810Z,85.56
2023-02-11T15:26:12.038Z,85.91
2023-02-11T15:28:39.351Z,85.99
2023-02-11T15:31:14.914Z,86.11
2023-02-11T15:33:43.589Z,86.17
2023-02-11T15:36:12.138Z,86.48
2023-02-11T15:38:39.430Z,86.73
2023-02-11T15:41:07.229Z,86.84
2023-02-11T15:43:42.248Z,87.27
2023-02-11T15:46:12.960Z,87.42
2023-02-11T15:48:45.249Z,87.30
2023-02-11T15:51:20.152Z,88.02
2023-02-11T15:53:50.279Z,88.15
2023-02-11T15:56:22.373Z,88.68
2023-02-11T15:58:51.811Z,88.63
2023-02-11T16:01:19.658Z,89.00
2023-02-11T16:03:50.547Z,88.94
2023-02-11T16:06:20.776Z,88.96
2023-02-11T16:08:59.808Z,88.83
2023-02-11T16:11:29.212Z,88.59
2023-02-11T16:13:56.979Z,89.04
2023-02-11T16:16:26.416Z,88.74
2023-02-11T16:19:05.792Z,89.00
2023-02-11T16:21:35.510Z,89.06
2023-02-11T16:24:03.078Z,88.92
2023-02-11T16:26:34.425Z,88.90
2023-02-11T16:29:11.662Z,88.81
2023-02-11T16:31:42.142Z,89.26
2023-02-11T16:34:16.650Z,89.22
2023-02-11T16:36:44.519Z,89.89
2023-02-11T16:39:11.859Z,90.10
2023-02-11T16:41:39.022Z,90.50
2023-02-11T16:44:06.235Z,90.37
2023-02-11T16:46:34.061Z,90.58
2023-02-11T16:49:09.745Z,90.43
2023-02-11T16:51:40.875Z,90.60
2023-02-11T16:54:13.588Z,90.84
2023-02-11T16:56:40.773Z,90.94
2023-02-11T16:59:08.011Z,90.60
2023-02-11T17:01:35.705Z,90.80
2023-02-11T17:04:03.325Z,91.18
2023-02-11T17:06:30.989Z,91.19
2023-02-11T17:08:59.872Z,91.50
2023-02-11T17:11:27.091Z,92.18
2023-02-11T17:13:54.228Z,92.29
2023-02-11T17:16:23.092Z,92.98
2023-02-11T17:18:50.716Z,93.17
2023-02-11T17:21:18.644Z,93.51
2023-02-11T17:23:45.853Z,93.45
2023-02-11T17:26:14.383Z,93.77
2023-02-11T17:28:41.517Z,93.87
2023-02-11T17:31:09.144Z,93.79
2023-02-11T17:33:36.825Z,93.86
2023-02-11T17:36:05.549Z,93.80
2023-02-11T17:38:33.200Z,93.83
2023-02-11T17:41:01.560Z,93.75
2023-02-11T17:43:30.817Z,93.65
2023-02-11T17:45:58.484Z,93.53
2023-02-11T17:48:25.716Z,93.27
2023-02-11T17:50:52.884Z,93.45
2023-02-11T17:53:20.049Z,93.63
2023-02-11T17:55:47.177Z,93.76
2023-02-11T17:58:14.443Z,93.70
2023-02-11T18:00:42.998Z,93.65
2023-02-11T18:03:10.216Z,94.07
2023-02-11T18:05:37.813Z,94.00
2023-02-11T18:08:07.055Z,94.01
2023-02-11T18:10:34.400Z,93.78
2023-02-11T18:13:01.739Z,94.05
2023-02-11T18:15:29.023Z,94.04
2023-02-11T18:17:57.556Z,94.30
2023-02-11T18:20:24.733Z,94.45
2023-02-11T18:22:51.880Z,94.55
2023-02-11T18:25:19.334Z,94.65
2023-02-11T18:27:46.531Z,94.69
2023-02-11T18:30:16.089Z,95.21
2023-02-11T18:32:43.286Z,95.31
2023-02-11T18:35:14.719Z,95.28
2023-02-11T18:37:42.723Z,95.23
2023-02-11T18:40:11.291Z,95.31
2023-02-11T18:42:38.843Z,95.43
2023-02-11T18:45:06.849Z,95.96
2023-02-11T18:47:34.012Z,96.25
2023-02-11T18:50:01.184Z,96.45
2023-02-11T18:52:30.512Z,96.74
2023-02-11T18:54:57.812Z,96.78
2023-02-11T18:57:25.129Z,97.10
2023-02-11T18:59:52.353Z,97.35
2023-02-11T19:02:19.607Z,97.00
2023-02-11T19:04:46.838Z,97.01
2023-02-11T19:07:14.066Z,96.83
2023-02-11T19:09:42.698Z,96.31
2023-02-11T19:12:09.912Z,96.40
2023-02-11T19:14:37.236Z,96.59
2023-02-11T19:17:06.753Z,96.67
2023-02-11T19:19:35.813Z,96.82
2023-02-11T19:22:04.201Z,97.11
2023-02-11T19:24:31.875Z,97.36
2023-02-11T19:27:01.860Z,97.54
2023-02-11T19:29:30.192Z,97.61
2023-02-11T19:31:57.436Z,97.76
2023-02-11T19:34:25.039Z,98.18
2023-02-11T19:36:52.358Z,98.22
2023-02-11T19:39:20.034Z,98.36
2023-02-11T19:41:47.247Z,98.10
2023-02-11T19:44:15.979Z,98.22
2023-02-11T19:46:43.754Z,97.87
2023-02-11T19:49:14.105Z,97.16
2023-02-11T19:51:41.392Z,96.52
2023-02-11T19:54:08.593Z,96.25
2023-02-11T19:56:35.753Z,96.14
2023-02-11T19:59:03.962Z,96.31
2023-02-11T20:01:32.563Z,96.94
2023-02-11T20:03:59.751Z,97.72
2023-02-11T20:06:29.179Z,97.99
2023-02-11T20:08:58.808Z,98.20
2023-02-11T20:11:28.374Z,98.38
2023-02-11T20:13:55.552Z,98.34
2023-02-11T20:16:36.853Z,98.69
2023-02-11T20:19:12.893Z,98.79
2023-02-11T20:21:40.368Z,98.94
2023-02-11T20:24:07.627Z,98.73
2023-02-11T20:26:34.824Z,97.98
2023-02-11T20:29:02.471Z,97.94
2023-02-11T20:31:30.757Z,97.86
2023-02-11T20:33:58.234Z,98.36
2023-02-11T20:36:29.156Z,98.91
2023-02-11T20:38:56.756Z,99.13
2023-02-11T20:41:25.968Z,99.29
2023-02-11T20:43:54.871Z,99.22
2023-02-11T20:46:25.093Z,99.32
2023-02-11T20:48:54.188Z,99.46
2023-02-11T20:51:28.853Z,98.90
2023-02-11T20:53:56.481Z,98.55
2023-02-11T20:56:25.870Z,97.99
2023-02-11T20:58:53.336Z,97.81
2023-02-11T21:01:22.627Z,97.64
2023-02-11T21:03:52.725Z,97.42
2023-02-11T21:06:20.994Z,97.64
2023-02-11T21:08:49.555Z,97.91
2023-02-11T21:11:17.170Z,97.92
2023-02-11T21:13:44.370Z,97.98
2023-02-11T21:16:14.723Z,98.29
2023-02-11T21:18:42.022Z,98.32
2023-02-11T21:21:09.406Z,98.32
2023-02-11T21:23:36.571Z,98.49
2023-02-11T21:26:05.887Z,98.19
2023-02-11T21:28:33.876Z,97.93
2023-02-11T21:31:01.787Z,98.00
2023-02-11T21:33:30.218Z,98.47
2023-02-11T21:35:58.792Z,98.47
2023-02-11T21:38:27.027Z,98.52
2023-02-11T21:40:54.902Z,99.01
2023-02-11T21:43:23.418Z,99.31
2023-02-11T21:45:51.370Z,99.09
2023-02-11T21:48:18.888Z,98.66
2023-02-11T21:50:47.311Z,98.18
2023-02-11T21:53:14.824Z,98.07
2023-02-11T21:55:42.243Z,98.40
2023-02-11T21:58:10.668Z,98.31
2023-02-11T22:00:39.788Z,98.57
2023-02-11T22:03:06.945Z,99.13
2023-02-11T22:05:34.237Z,99.56
2023-02-11T22:08:01.381Z,99.82
2023-02-11T22:10:28.533Z,100.00
2023-02-11T22:12:55.696Z,99.95
2023-02-11T22:15:22.909Z,99.79
2023-02-11T22:17:51.471Z,99.90
2023-02-11T22:20:18.812Z,100.00
2023-02-11T22:22:45.961Z,100.00
2023-02-11T22:25:13.113Z,100.00
2023-02-11T22:27:40.301Z,100.00
2023-02-11T22:30:08.819Z,100.00
2023-02-11T22:32:36.133Z,100.00
2023-02-11T22:35:05.049Z,100.00
2023-02-11T22:37:32.204Z,100.00
2023-02-11T22:39:59.441Z,100.00
2023-02-11T22:42:26.590Z,100.00
2023-02-11T22:44:53.768Z,100.00
2023-02-11T22:47:20.930Z,100.00
2023-02-11T22:49:48.052Z,100.00
2023-02-11T22:52:16.737Z,100.00
2023-02-11T22:54:44.170Z,100.00
2023-02-11T22:57:11.335Z,100.00
2023-02-11T22:59:38.491Z,100.00
2023-02-11T23:02:05.831Z,99.95
2023-02-11T23:04:33.050Z,99.88
2023-02-11T23:07:00.229Z,99.79
2023-02-11T23:09:28.782Z,99.75
2023-02-11T23:11:55.916Z,99.89
2023-02-11T23:14:23.074Z,99.80
2023-02-11T23:16:50.660Z,99.84
2023-02-11T23:19:17.893Z,100.00
2023-02-11T23:21:45.067Z,100.00
2023-02-11T23:24:14.244Z,100.00
2023-02-11T23:26:43.309Z,100.00
2023-02-11T23:29:11.723Z,100.00
2023-02-11T23:31:41.857Z,100.00
2023-02-11T23:34:09.866Z,100.00
2023-02-11T23:36:37.478Z,100.00
2023-02-11T23:39:04.976Z,100.00
2023-02-11T23:41:32.169Z,100.00
2023-02-11T23:44:00.650Z,100.00
2023-02-11T23:46:28.146Z,100.00
2023-02-11T23:48:56.015Z,100.00
2023-02-11T23:51:24.003Z,100.00
2023-02-11T23:53:52.101Z,100.00
2023-02-11T23:56:24.612Z,100.00
2023-02-11T23:58:53.473Z,100.00
